sensor_id;sensor_type;location;lat;lon;timestamp;P1;durP1;ratioP1;P2;durP2;ratioP2
2610;SDS011;5612;51.134;17.058;2024-03-07T00:02:12;32.60;;;27.00;;
2610;SDS011;5612;51.134;17.058;2024-03-07T00:04:41;35.53;;;27.23;;
2610;SDS011;5612;51.134;17.058;2024-03-07T00:07:10;36.53;;;28.10;;
2610;SDS011;5612;51.134;17.058;2024-03-07T00:09:39;35.80;;;28.40;;
2610;SDS011;5612;51.134;17.058;2024-03-07T00:12:08;29.40;;;23.97;;
2610;SDS011;5612;51.134;17.058;2024-03-07T00:14:39;35.70;;;27.80;;
2610;SDS011;5612;51.134;17.058;2024-03-07T00:17:08;41.83;;;26.73;;
2610;SDS011;5612;51.134;17.058;2024-03-07T00:19:37;33.80;;;27.40;;
2610;SDS011;5612;51.134;17.058;2024-03-07T00:22:06;31.93;;;25.83;;
2610;SDS011;5612;51.134;17.058;2024-03-07T00:24:35;34.87;;;27.17;;
2610;SDS011;5612;51.134;17.058;2024-03-07T00:27:05;32.90;;;25.43;;
2610;SDS011;5612;51.134;17.058;2024-03-07T00:29:34;34.90;;;25.33;;
2610;SDS011;5612;51.134;17.058;2024-03-07T00:32:06;34.27;;;26.67;;
2610;SDS011;5612;51.134;17.058;2024-03-07T00:34:35;32.37;;;26.37;;
2610;SDS011;5612;51.134;17.058;2024-03-07T00:37:06;29.93;;;23.47;;
2610;SDS011;5612;51.134;17.058;2024-03-07T00:39:36;34.93;;;25.50;;
2610;SDS011;5612;51.134;17.058;2024-03-07T00:42:06;35.63;;;25.90;;
2610;SDS011;5612;51.134;17.058;2024-03-07T00:44:34;34.50;;;26.57;;
2610;SDS011;5612;51.134;17.058;2024-03-07T00:47:04;36.90;;;26.37;;
2610;SDS011;5612;51.134;17.058;2024-03-07T00:49:34;35.27;;;25.77;;
2610;SDS011;5612;51.134;17.058;2024-03-07T00:52:03;34.43;;;26.10;;
2610;SDS011;5612;51.134;17.058;2024-03-07T00:54:32;33.03;;;25.10;;
2610;SDS011;5612;51.134;17.058;2024-03-07T00:57:01;32.53;;;25.27;;
2610;SDS011;5612;51.134;17.058;2024-03-07T00:59:31;30.17;;;24.40;;
2610;SDS011;5612;51.134;17.058;2024-03-07T01:02:00;30.13;;;23.30;;
2610;SDS011;5612;51.134;17.058;2024-03-07T01:04:30;31.30;;;23.73;;
2610;SDS011;5612;51.134;17.058;2024-03-07T01:07:00;30.67;;;23.90;;
2610;SDS011;5612;51.134;17.058;2024-03-07T01:09:30;34.77;;;24.80;;
2610;SDS011;5612;51.134;17.058;2024-03-07T01:11:59;29.03;;;24.37;;
2610;SDS011;5612;51.134;17.058;2024-03-07T01:14:30;31.80;;;22.93;;
2610;SDS011;5612;51.134;17.058;2024-03-07T01:16:59;27.50;;;23.07;;
2610;SDS011;5612;51.134;17.058;2024-03-07T01:19:28;33.13;;;24.80;;
2610;SDS011;5612;51.134;17.058;2024-03-07T01:21:58;25.90;;;22.20;;
2610;SDS011;5612;51.134;17.058;2024-03-07T01:24:27;28.10;;;22.90;;
2610;SDS011;5612;51.134;17.058;2024-03-07T01:26:56;25.27;;;21.73;;
2610;SDS011;5612;51.134;17.058;2024-03-07T01:29:26;31.20;;;24.07;;
2610;SDS011;5612;51.134;17.058;2024-03-07T01:31:56;27.93;;;23.27;;
2610;SDS011;5612;51.134;17.058;2024-03-07T01:34:25;31.90;;;22.97;;
2610;SDS011;5612;51.134;17.058;2024-03-07T01:36:55;31.70;;;22.77;;
2610;SDS011;5612;51.134;17.058;2024-03-07T01:39:26;28.60;;;21.80;;
2610;SDS011;5612;51.134;17.058;2024-03-07T01:41:56;28.80;;;21.70;;
2610;SDS011;5612;51.134;17.058;2024-03-07T01:44:26;27.83;;;23.83;;
2610;SDS011;5612;51.134;17.058;2024-03-07T01:47:02;30.87;;;22.80;;
2610;SDS011;5612;51.134;17.058;2024-03-07T01:49:32;28.30;;;22.73;;
2610;SDS011;5612;51.134;17.058;2024-03-07T01:52:01;29.53;;;22.30;;
2610;SDS011;5612;51.134;17.058;2024-03-07T01:54:34;26.30;;;21.90;;
2610;SDS011;5612;51.134;17.058;2024-03-07T01:57:04;30.10;;;23.20;;
2610;SDS011;5612;51.134;17.058;2024-03-07T01:59:33;30.67;;;22.23;;
2610;SDS011;5612;51.134;17.058;2024-03-07T02:02:03;32.63;;;23.23;;
2610;SDS011;5612;51.134;17.058;2024-03-07T02:04:32;30.10;;;24.80;;
2610;SDS011;5612;51.134;17.058;2024-03-07T02:07:01;33.73;;;24.10;;
2610;SDS011;5612;51.134;17.058;2024-03-07T02:09:30;27.43;;;22.10;;
2610;SDS011;5612;51.134;17.058;2024-03-07T02:12:00;27.67;;;21.80;;
2610;SDS011;5612;51.134;17.058;2024-03-07T02:14:29;27.70;;;21.83;;
2610;SDS011;5612;51.134;17.058;2024-03-07T02:16:58;25.50;;;21.30;;
2610;SDS011;5612;51.134;17.058;2024-03-07T02:19:27;23.20;;;20.70;;
2610;SDS011;5612;51.134;17.058;2024-03-07T02:21:57;28.80;;;22.47;;
2610;SDS011;5612;51.134;17.058;2024-03-07T02:24:26;26.87;;;20.90;;
2610;SDS011;5612;51.134;17.058;2024-03-07T02:26:55;27.70;;;21.67;;
2610;SDS011;5612;51.134;17.058;2024-03-07T02:29:26;26.87;;;22.27;;
2610;SDS011;5612;51.134;17.058;2024-03-07T02:31:55;28.13;;;21.63;;
2610;SDS011;5612;51.134;17.058;2024-03-07T02:34:24;30.17;;;22.83;;
2610;SDS011;5612;51.134;17.058;2024-03-07T02:36:53;25.27;;;20.60;;
2610;SDS011;5612;51.134;17.058;2024-03-07T02:39:23;27.53;;;22.40;;
2610;SDS011;5612;51.134;17.058;2024-03-07T02:41:52;28.30;;;22.47;;
2610;SDS011;5612;51.134;17.058;2024-03-07T02:44:21;31.17;;;21.70;;
2610;SDS011;5612;51.134;17.058;2024-03-07T02:46:50;25.73;;;21.07;;
2610;SDS011;5612;51.134;17.058;2024-03-07T02:49:19;33.27;;;21.40;;
2610;SDS011;5612;51.134;17.058;2024-03-07T02:51:48;32.63;;;21.33;;
2610;SDS011;5612;51.134;17.058;2024-03-07T02:54:17;26.80;;;21.60;;
2610;SDS011;5612;51.134;17.058;2024-03-07T02:56:48;26.53;;;20.73;;
2610;SDS011;5612;51.134;17.058;2024-03-07T02:59:16;26.40;;;20.27;;
2610;SDS011;5612;51.134;17.058;2024-03-07T03:01:45;26.47;;;20.80;;
2610;SDS011;5612;51.134;17.058;2024-03-07T03:04:14;25.40;;;20.40;;
2610;SDS011;5612;51.134;17.058;2024-03-07T03:06:44;24.77;;;20.00;;
2610;SDS011;5612;51.134;17.058;2024-03-07T03:09:13;30.63;;;20.67;;
2610;SDS011;5612;51.134;17.058;2024-03-07T03:11:44;30.90;;;22.33;;
2610;SDS011;5612;51.134;17.058;2024-03-07T03:14:15;29.33;;;21.13;;
2610;SDS011;5612;51.134;17.058;2024-03-07T03:16:44;24.17;;;20.00;;
2610;SDS011;5612;51.134;17.058;2024-03-07T03:19:14;27.53;;;22.03;;
2610;SDS011;5612;51.134;17.058;2024-03-07T03:21:43;29.53;;;23.60;;
2610;SDS011;5612;51.134;17.058;2024-03-07T03:24:12;31.20;;;22.00;;
2610;SDS011;5612;51.134;17.058;2024-03-07T03:26:42;25.47;;;19.30;;
2610;SDS011;5612;51.134;17.058;2024-03-07T03:29:11;29.03;;;22.07;;
2610;SDS011;5612;51.134;17.058;2024-03-07T03:31:42;33.70;;;22.10;;
2610;SDS011;5612;51.134;17.058;2024-03-07T03:34:11;27.47;;;21.73;;
2610;SDS011;5612;51.134;17.058;2024-03-07T03:36:40;31.60;;;21.77;;
2610;SDS011;5612;51.134;17.058;2024-03-07T03:39:08;25.57;;;18.87;;
2610;SDS011;5612;51.134;17.058;2024-03-07T03:41:40;25.70;;;20.20;;
2610;SDS011;5612;51.134;17.058;2024-03-07T03:44:09;23.43;;;19.97;;
2610;SDS011;5612;51.134;17.058;2024-03-07T03:46:38;28.83;;;20.47;;
2610;SDS011;5612;51.134;17.058;2024-03-07T03:49:08;27.20;;;19.87;;
2610;SDS011;5612;51.134;17.058;2024-03-07T03:51:38;28.73;;;21.97;;
2610;SDS011;5612;51.134;17.058;2024-03-07T03:54:06;27.40;;;21.80;;
2610;SDS011;5612;51.134;17.058;2024-03-07T03:56:35;30.60;;;21.63;;
2610;SDS011;5612;51.134;17.058;2024-03-07T03:59:06;31.07;;;21.10;;
2610;SDS011;5612;51.134;17.058;2024-03-07T04:01:35;29.00;;;21.73;;
2610;SDS011;5612;51.134;17.058;2024-03-07T04:04:04;25.83;;;20.77;;
2610;SDS011;5612;51.134;17.058;2024-03-07T04:06:35;30.07;;;21.57;;
2610;SDS011;5612;51.134;17.058;2024-03-07T04:09:04;31.07;;;22.93;;
2610;SDS011;5612;51.134;17.058;2024-03-07T04:11:33;27.87;;;21.07;;
2610;SDS011;5612;51.134;17.058;2024-03-07T04:14:02;25.37;;;20.53;;
2610;SDS011;5612;51.134;17.058;2024-03-07T04:16:31;26.37;;;21.10;;
2610;SDS011;5612;51.134;17.058;2024-03-07T04:19:00;33.57;;;23.23;;
2610;SDS011;5612;51.134;17.058;2024-03-07T04:21:28;26.43;;;21.80;;
2610;SDS011;5612;51.134;17.058;2024-03-07T04:24:00;32.10;;;23.50;;
2610;SDS011;5612;51.134;17.058;2024-03-07T04:26:29;27.93;;;23.73;;
2610;SDS011;5612;51.134;17.058;2024-03-07T04:28:59;35.67;;;22.27;;
2610;SDS011;5612;51.134;17.058;2024-03-07T04:31:27;34.80;;;22.90;;
2610;SDS011;5612;51.134;17.058;2024-03-07T04:33:56;29.77;;;22.47;;
2610;SDS011;5612;51.134;17.058;2024-03-07T04:36:25;30.80;;;21.43;;
2610;SDS011;5612;51.134;17.058;2024-03-07T04:38:54;29.47;;;23.73;;
2610;SDS011;5612;51.134;17.058;2024-03-07T04:41:24;28.83;;;21.70;;
2610;SDS011;5612;51.134;17.058;2024-03-07T04:43:53;28.87;;;22.10;;
2610;SDS011;5612;51.134;17.058;2024-03-07T04:46:22;27.50;;;22.00;;
2610;SDS011;5612;51.134;17.058;2024-03-07T04:48:51;34.73;;;21.37;;
2610;SDS011;5612;51.134;17.058;2024-03-07T04:51:20;26.17;;;21.70;;
2610;SDS011;5612;51.134;17.058;2024-03-07T04:53:49;27.50;;;22.73;;
2610;SDS011;5612;51.134;17.058;2024-03-07T04:56:18;26.30;;;20.30;;
2610;SDS011;5612;51.134;17.058;2024-03-07T04:58:48;25.80;;;20.77;;
2610;SDS011;5612;51.134;17.058;2024-03-07T05:01:17;33.57;;;23.67;;
2610;SDS011;5612;51.134;17.058;2024-03-07T05:03:46;29.30;;;21.17;;
2610;SDS011;5612;51.134;17.058;2024-03-07T05:06:14;31.93;;;21.33;;
2610;SDS011;5612;51.134;17.058;2024-03-07T05:08:43;26.70;;;21.40;;
2610;SDS011;5612;51.134;17.058;2024-03-07T05:11:14;32.07;;;21.00;;
2610;SDS011;5612;51.134;17.058;2024-03-07T05:13:44;31.30;;;24.70;;
2610;SDS011;5612;51.134;17.058;2024-03-07T05:16:14;34.53;;;26.80;;
2610;SDS011;5612;51.134;17.058;2024-03-07T05:18:44;37.67;;;28.57;;
2610;SDS011;5612;51.134;17.058;2024-03-07T05:21:13;33.33;;;26.60;;
2610;SDS011;5612;51.134;17.058;2024-03-07T05:23:58;30.80;;;24.73;;
2610;SDS011;5612;51.134;17.058;2024-03-07T05:26:28;32.30;;;24.20;;
2610;SDS011;5612;51.134;17.058;2024-03-07T05:29:01;30.50;;;21.93;;
2610;SDS011;5612;51.134;17.058;2024-03-07T05:31:34;32.00;;;23.13;;
2610;SDS011;5612;51.134;17.058;2024-03-07T05:34:04;28.20;;;22.77;;
2610;SDS011;5612;51.134;17.058;2024-03-07T05:36:35;26.90;;;22.60;;
2610;SDS011;5612;51.134;17.058;2024-03-07T05:39:11;30.37;;;23.53;;
2610;SDS011;5612;51.134;17.058;2024-03-07T05:41:40;31.90;;;22.53;;
2610;SDS011;5612;51.134;17.058;2024-03-07T05:44:12;28.97;;;21.20;;
2610;SDS011;5612;51.134;17.058;2024-03-07T05:46:43;38.90;;;22.23;;
2610;SDS011;5612;51.134;17.058;2024-03-07T05:49:15;28.83;;;22.03;;
2610;SDS011;5612;51.134;17.058;2024-03-07T05:51:45;34.30;;;22.70;;
2610;SDS011;5612;51.134;17.058;2024-03-07T05:54:14;35.03;;;23.50;;
2610;SDS011;5612;51.134;17.058;2024-03-07T05:56:43;26.00;;;20.60;;
2610;SDS011;5612;51.134;17.058;2024-03-07T05:59:11;28.63;;;21.40;;
2610;SDS011;5612;51.134;17.058;2024-03-07T06:01:41;32.40;;;22.60;;
2610;SDS011;5612;51.134;17.058;2024-03-07T06:04:11;26.67;;;20.20;;
2610;SDS011;5612;51.134;17.058;2024-03-07T06:06:40;30.30;;;22.87;;
2610;SDS011;5612;51.134;17.058;2024-03-07T06:09:09;27.50;;;22.30;;
2610;SDS011;5612;51.134;17.058;2024-03-07T06:11:40;28.03;;;20.20;;
2610;SDS011;5612;51.134;17.058;2024-03-07T06:14:10;23.20;;;20.40;;
2610;SDS011;5612;51.134;17.058;2024-03-07T06:16:40;29.40;;;21.80;;
2610;SDS011;5612;51.134;17.058;2024-03-07T06:19:11;29.77;;;20.50;;
2610;SDS011;5612;51.134;17.058;2024-03-07T06:21:40;24.83;;;20.37;;
2610;SDS011;5612;51.134;17.058;2024-03-07T06:24:09;27.10;;;20.00;;
2610;SDS011;5612;51.134;17.058;2024-03-07T06:26:41;25.13;;;18.87;;
2610;SDS011;5612;51.134;17.058;2024-03-07T06:29:16;26.00;;;19.57;;
2610;SDS011;5612;51.134;17.058;2024-03-07T06:31:47;24.70;;;20.77;;
2610;SDS011;5612;51.134;17.058;2024-03-07T06:34:16;22.03;;;19.73;;
2610;SDS011;5612;51.134;17.058;2024-03-07T06:36:45;24.40;;;20.60;;
2610;SDS011;5612;51.134;17.058;2024-03-07T06:39:17;25.70;;;20.17;;
2610;SDS011;5612;51.134;17.058;2024-03-07T06:41:48;33.07;;;24.53;;
2610;SDS011;5612;51.134;17.058;2024-03-07T06:44:17;26.13;;;23.37;;
2610;SDS011;5612;51.134;17.058;2024-03-07T06:46:52;26.73;;;20.87;;
2610;SDS011;5612;51.134;17.058;2024-03-07T06:49:21;22.90;;;19.40;;
2610;SDS011;5612;51.134;17.058;2024-03-07T06:51:50;25.97;;;21.23;;
2610;SDS011;5612;51.134;17.058;2024-03-07T06:54:21;27.30;;;21.07;;
2610;SDS011;5612;51.134;17.058;2024-03-07T06:56:52;29.47;;;20.30;;
2610;SDS011;5612;51.134;17.058;2024-03-07T06:59:21;28.47;;;19.77;;
2610;SDS011;5612;51.134;17.058;2024-03-07T07:01:51;29.10;;;22.17;;
2610;SDS011;5612;51.134;17.058;2024-03-07T07:04:21;31.37;;;21.27;;
2610;SDS011;5612;51.134;17.058;2024-03-07T07:06:52;29.03;;;21.70;;
2610;SDS011;5612;51.134;17.058;2024-03-07T07:09:21;27.60;;;20.37;;
2610;SDS011;5612;51.134;17.058;2024-03-07T07:11:50;26.10;;;20.87;;
2610;SDS011;5612;51.134;17.058;2024-03-07T07:14:19;29.30;;;24.70;;
2610;SDS011;5612;51.134;17.058;2024-03-07T07:16:49;29.83;;;23.80;;
2610;SDS011;5612;51.134;17.058;2024-03-07T07:19:19;25.60;;;21.73;;
2610;SDS011;5612;51.134;17.058;2024-03-07T07:21:48;25.30;;;22.30;;
2610;SDS011;5612;51.134;17.058;2024-03-07T07:24:20;25.97;;;20.27;;
2610;SDS011;5612;51.134;17.058;2024-03-07T07:26:50;24.00;;;21.07;;
2610;SDS011;5612;51.134;17.058;2024-03-07T07:29:19;24.53;;;20.77;;
2610;SDS011;5612;51.134;17.058;2024-03-07T07:31:50;24.33;;;21.63;;
2610;SDS011;5612;51.134;17.058;2024-03-07T07:34:21;25.97;;;21.47;;
2610;SDS011;5612;51.134;17.058;2024-03-07T07:36:50;29.97;;;22.00;;
2610;SDS011;5612;51.134;17.058;2024-03-07T07:39:20;22.23;;;18.53;;
2610;SDS011;5612;51.134;17.058;2024-03-07T07:41:49;27.00;;;20.00;;
2610;SDS011;5612;51.134;17.058;2024-03-07T07:44:17;24.17;;;19.57;;
2610;SDS011;5612;51.134;17.058;2024-03-07T07:46:46;23.00;;;20.00;;
2610;SDS011;5612;51.134;17.058;2024-03-07T07:49:16;22.57;;;18.67;;
2610;SDS011;5612;51.134;17.058;2024-03-07T07:51:47;25.37;;;21.03;;
2610;SDS011;5612;51.134;17.058;2024-03-07T07:54:17;24.00;;;19.83;;
2610;SDS011;5612;51.134;17.058;2024-03-07T07:56:46;23.33;;;20.83;;
2610;SDS011;5612;51.134;17.058;2024-03-07T07:59:15;26.37;;;18.70;;
2610;SDS011;5612;51.134;17.058;2024-03-07T08:01:44;23.33;;;19.50;;
2610;SDS011;5612;51.134;17.058;2024-03-07T08:04:13;21.67;;;18.33;;
2610;SDS011;5612;51.134;17.058;2024-03-07T08:06:43;23.80;;;19.20;;
2610;SDS011;5612;51.134;17.058;2024-03-07T08:09:13;23.50;;;18.97;;
2610;SDS011;5612;51.134;17.058;2024-03-07T08:11:43;22.20;;;18.57;;
2610;SDS011;5612;51.134;17.058;2024-03-07T08:14:12;20.70;;;17.30;;
2610;SDS011;5612;51.134;17.058;2024-03-07T08:16:41;21.33;;;17.63;;
2610;SDS011;5612;51.134;17.058;2024-03-07T08:19:10;23.20;;;18.50;;
2610;SDS011;5612;51.134;17.058;2024-03-07T08:21:40;20.47;;;18.30;;
2610;SDS011;5612;51.134;17.058;2024-03-07T08:24:09;21.73;;;18.83;;
2610;SDS011;5612;51.134;17.058;2024-03-07T08:26:40;17.27;;;15.50;;
2610;SDS011;5612;51.134;17.058;2024-03-07T08:29:11;23.83;;;17.47;;
2610;SDS011;5612;51.134;17.058;2024-03-07T08:31:40;19.77;;;17.67;;
2610;SDS011;5612;51.134;17.058;2024-03-07T08:34:09;34.00;;;24.63;;
2610;SDS011;5612;51.134;17.058;2024-03-07T08:36:39;21.27;;;17.17;;
2610;SDS011;5612;51.134;17.058;2024-03-07T08:39:08;23.30;;;18.20;;
2610;SDS011;5612;51.134;17.058;2024-03-07T08:41:37;22.30;;;17.63;;
2610;SDS011;5612;51.134;17.058;2024-03-07T08:44:11;20.63;;;18.37;;
2610;SDS011;5612;51.134;17.058;2024-03-07T08:46:41;21.77;;;19.43;;
2610;SDS011;5612;51.134;17.058;2024-03-07T08:49:10;22.03;;;19.43;;
2610;SDS011;5612;51.134;17.058;2024-03-07T08:51:41;22.90;;;17.93;;
2610;SDS011;5612;51.134;17.058;2024-03-07T08:54:10;22.97;;;20.47;;
2610;SDS011;5612;51.134;17.058;2024-03-07T08:56:40;24.00;;;20.10;;
2610;SDS011;5612;51.134;17.058;2024-03-07T08:59:09;21.13;;;17.67;;
2610;SDS011;5612;51.134;17.058;2024-03-07T09:01:42;18.60;;;16.70;;
2610;SDS011;5612;51.134;17.058;2024-03-07T09:04:12;26.53;;;19.13;;
2610;SDS011;5612;51.134;17.058;2024-03-07T09:06:41;23.07;;;18.40;;
2610;SDS011;5612;51.134;17.058;2024-03-07T09:09:11;20.60;;;17.20;;
2610;SDS011;5612;51.134;17.058;2024-03-07T09:11:43;19.73;;;17.40;;
2610;SDS011;5612;51.134;17.058;2024-03-07T09:14:12;23.30;;;19.30;;
2610;SDS011;5612;51.134;17.058;2024-03-07T09:16:42;20.43;;;17.23;;
2610;SDS011;5612;51.134;17.058;2024-03-07T09:19:14;22.37;;;19.50;;
2610;SDS011;5612;51.134;17.058;2024-03-07T09:21:47;22.40;;;18.03;;
2610;SDS011;5612;51.134;17.058;2024-03-07T09:24:17;24.43;;;19.40;;
2610;SDS011;5612;51.134;17.058;2024-03-07T09:26:50;22.27;;;17.67;;
2610;SDS011;5612;51.134;17.058;2024-03-07T09:29:23;23.90;;;18.03;;
2610;SDS011;5612;51.134;17.058;2024-03-07T09:31:52;22.83;;;18.67;;
2610;SDS011;5612;51.134;17.058;2024-03-07T09:34:24;21.80;;;18.60;;
2610;SDS011;5612;51.134;17.058;2024-03-07T09:36:54;23.70;;;19.97;;
2610;SDS011;5612;51.134;17.058;2024-03-07T09:39:24;22.07;;;18.53;;
2610;SDS011;5612;51.134;17.058;2024-03-07T09:41:55;24.33;;;19.37;;
2610;SDS011;5612;51.134;17.058;2024-03-07T09:44:25;23.20;;;19.33;;
2610;SDS011;5612;51.134;17.058;2024-03-07T09:46:56;20.67;;;18.10;;
2610;SDS011;5612;51.134;17.058;2024-03-07T09:49:27;21.60;;;17.97;;
2610;SDS011;5612;51.134;17.058;2024-03-07T09:51:57;21.80;;;18.93;;
2610;SDS011;5612;51.134;17.058;2024-03-07T09:54:28;23.53;;;19.83;;
2610;SDS011;5612;51.134;17.058;2024-03-07T09:56:59;21.40;;;18.67;;
2610;SDS011;5612;51.134;17.058;2024-03-07T09:59:31;21.43;;;18.57;;
2610;SDS011;5612;51.134;17.058;2024-03-07T10:02:05;23.57;;;18.13;;
2610;SDS011;5612;51.134;17.058;2024-03-07T10:04:37;23.53;;;18.43;;
2610;SDS011;5612;51.134;17.058;2024-03-07T10:07:12;19.83;;;17.80;;
2610;SDS011;5612;51.134;17.058;2024-03-07T10:09:41;20.87;;;16.90;;
2610;SDS011;5612;51.134;17.058;2024-03-07T10:12:11;20.70;;;18.53;;
2610;SDS011;5612;51.134;17.058;2024-03-07T10:14:47;23.13;;;18.73;;
2610;SDS011;5612;51.134;17.058;2024-03-07T10:17:17;22.63;;;18.63;;
2610;SDS011;5612;51.134;17.058;2024-03-07T10:19:47;19.93;;;17.73;;
2610;SDS011;5612;51.134;17.058;2024-03-07T10:22:18;21.70;;;19.47;;
2610;SDS011;5612;51.134;17.058;2024-03-07T10:24:50;21.20;;;17.93;;
2610;SDS011;5612;51.134;17.058;2024-03-07T10:27:22;20.70;;;18.50;;
2610;SDS011;5612;51.134;17.058;2024-03-07T10:29:51;20.30;;;18.17;;
2610;SDS011;5612;51.134;17.058;2024-03-07T10:32:21;20.53;;;18.53;;
2610;SDS011;5612;51.134;17.058;2024-03-07T10:34:52;20.53;;;18.50;;
2610;SDS011;5612;51.134;17.058;2024-03-07T10:37:21;23.00;;;20.03;;
2610;SDS011;5612;51.134;17.058;2024-03-07T10:39:52;20.73;;;18.50;;
2610;SDS011;5612;51.134;17.058;2024-03-07T10:42:23;20.70;;;18.53;;
2610;SDS011;5612;51.134;17.058;2024-03-07T10:45:00;21.70;;;19.60;;
2610;SDS011;5612;51.134;17.058;2024-03-07T10:47:37;20.33;;;18.40;;
2610;SDS011;5612;51.134;17.058;2024-03-07T10:50:09;20.73;;;18.73;;
2610;SDS011;5612;51.134;17.058;2024-03-07T10:52:48;21.13;;;19.03;;
2610;SDS011;5612;51.134;17.058;2024-03-07T10:55:24;18.77;;;17.07;;
2610;SDS011;5612;51.134;17.058;2024-03-07T10:58:09;20.17;;;17.80;;
2610;SDS011;5612;51.134;17.058;2024-03-07T11:00:42;19.07;;;17.20;;
2610;SDS011;5612;51.134;17.058;2024-03-07T11:03:13;19.67;;;17.77;;
2610;SDS011;5612;51.134;17.058;2024-03-07T11:05:42;17.80;;;15.30;;
2610;SDS011;5612;51.134;17.058;2024-03-07T11:08:13;17.57;;;15.80;;
2610;SDS011;5612;51.134;17.058;2024-03-07T11:10:43;18.10;;;16.47;;
2610;SDS011;5612;51.134;17.058;2024-03-07T11:13:15;17.93;;;16.13;;
2610;SDS011;5612;51.134;17.058;2024-03-07T11:15:46;19.07;;;17.07;;
2610;SDS011;5612;51.134;17.058;2024-03-07T11:18:19;17.90;;;16.20;;
2610;SDS011;5612;51.134;17.058;2024-03-07T11:20:48;17.30;;;15.60;;
2610;SDS011;5612;51.134;17.058;2024-03-07T11:23:27;18.60;;;16.30;;
2610;SDS011;5612;51.134;17.058;2024-03-07T11:26:02;18.90;;;16.80;;
2610;SDS011;5612;51.134;17.058;2024-03-07T11:28:37;17.83;;;16.03;;
2610;SDS011;5612;51.134;17.058;2024-03-07T11:31:13;19.63;;;16.53;;
2610;SDS011;5612;51.134;17.058;2024-03-07T11:34:11;17.40;;;15.10;;
2610;SDS011;5612;51.134;17.058;2024-03-07T11:36:43;16.30;;;14.70;;
2610;SDS011;5612;51.134;17.058;2024-03-07T11:42:18;19.00;;;14.47;;
2610;SDS011;5612;51.134;17.058;2024-03-07T11:44:56;16.53;;;14.70;;
2610;SDS011;5612;51.134;17.058;2024-03-07T11:47:35;18.57;;;16.07;;
2610;SDS011;5612;51.134;17.058;2024-03-07T11:50:09;16.67;;;14.47;;
2610;SDS011;5612;51.134;17.058;2024-03-07T11:52:39;14.30;;;12.80;;
2610;SDS011;5612;51.134;17.058;2024-03-07T11:55:13;15.37;;;13.77;;
2610;SDS011;5612;51.134;17.058;2024-03-07T11:57:44;16.30;;;14.70;;
2610;SDS011;5612;51.134;17.058;2024-03-07T12:00:17;16.63;;;14.93;;
2610;SDS011;5612;51.134;17.058;2024-03-07T12:02:46;15.70;;;13.80;;
2610;SDS011;5612;51.134;17.058;2024-03-07T12:05:16;19.00;;;15.70;;
2610;SDS011;5612;51.134;17.058;2024-03-07T12:07:46;18.20;;;16.07;;
2610;SDS011;5612;51.134;17.058;2024-03-07T12:10:17;15.20;;;13.60;;
2610;SDS011;5612;51.134;17.058;2024-03-07T12:12:52;15.87;;;14.37;;
2610;SDS011;5612;51.134;17.058;2024-03-07T12:15:26;18.13;;;15.80;;
2610;SDS011;5612;51.134;17.058;2024-03-07T12:17:56;16.17;;;14.57;;
2610;SDS011;5612;51.134;17.058;2024-03-07T12:20:27;16.83;;;14.87;;
2610;SDS011;5612;51.134;17.058;2024-03-07T12:23:01;16.10;;;14.70;;
2610;SDS011;5612;51.134;17.058;2024-03-07T12:25:32;16.80;;;14.93;;
2610;SDS011;5612;51.134;17.058;2024-03-07T12:28:03;16.97;;;15.27;;
2610;SDS011;5612;51.134;17.058;2024-03-07T12:30:35;17.17;;;15.47;;
2610;SDS011;5612;51.134;17.058;2024-03-07T12:33:17;17.30;;;15.57;;
2610;SDS011;5612;51.134;17.058;2024-03-07T12:35:48;15.97;;;14.37;;
2610;SDS011;5612;51.134;17.058;2024-03-07T12:38:22;18.83;;;15.53;;
2610;SDS011;5612;51.134;17.058;2024-03-07T12:41:02;15.70;;;14.03;;
2610;SDS011;5612;51.134;17.058;2024-03-07T12:43:34;17.50;;;15.80;;
2610;SDS011;5612;51.134;17.058;2024-03-07T12:46:08;16.10;;;14.50;;
2610;SDS011;5612;51.134;17.058;2024-03-07T12:48:43;16.83;;;15.03;;
2610;SDS011;5612;51.134;17.058;2024-03-07T12:51:14;16.27;;;14.47;;
2610;SDS011;5612;51.134;17.058;2024-03-07T12:53:47;18.27;;;15.07;;
2610;SDS011;5612;51.134;17.058;2024-03-07T12:56:17;15.83;;;13.90;;
2610;SDS011;5612;51.134;17.058;2024-03-07T12:58:47;18.00;;;16.10;;
2610;SDS011;5612;51.134;17.058;2024-03-07T13:01:20;16.13;;;14.57;;
2610;SDS011;5612;51.134;17.058;2024-03-07T13:03:50;17.20;;;14.27;;
2610;SDS011;5612;51.134;17.058;2024-03-07T13:06:21;16.73;;;14.93;;
2610;SDS011;5612;51.134;17.058;2024-03-07T13:08:56;15.20;;;13.70;;
2610;SDS011;5612;51.134;17.058;2024-03-07T13:11:27;14.97;;;13.43;;
2610;SDS011;5612;51.134;17.058;2024-03-07T13:13:59;17.20;;;14.27;;
2610;SDS011;5612;51.134;17.058;2024-03-07T13:16:32;17.77;;;14.10;;
2610;SDS011;5612;51.134;17.058;2024-03-07T13:19:04;15.80;;;14.20;;
2610;SDS011;5612;51.134;17.058;2024-03-07T13:21:36;15.57;;;13.93;;
2610;SDS011;5612;51.134;17.058;2024-03-07T13:24:07;18.90;;;16.77;;
2610;SDS011;5612;51.134;17.058;2024-03-07T13:26:38;16.63;;;14.97;;
2610;SDS011;5612;51.134;17.058;2024-03-07T13:29:11;18.03;;;15.10;;
2610;SDS011;5612;51.134;17.058;2024-03-07T13:31:44;17.30;;;15.03;;
2610;SDS011;5612;51.134;17.058;2024-03-07T13:34:14;21.33;;;17.10;;
2610;SDS011;5612;51.134;17.058;2024-03-07T13:36:43;17.57;;;15.63;;
2610;SDS011;5612;51.134;17.058;2024-03-07T13:39:14;17.93;;;14.93;;
2610;SDS011;5612;51.134;17.058;2024-03-07T13:41:46;18.50;;;16.33;;
2610;SDS011;5612;51.134;17.058;2024-03-07T13:44:15;18.80;;;16.80;;
2610;SDS011;5612;51.134;17.058;2024-03-07T13:46:47;17.30;;;15.50;;
2610;SDS011;5612;51.134;17.058;2024-03-07T13:49:18;17.80;;;15.90;;
2610;SDS011;5612;51.134;17.058;2024-03-07T13:51:49;17.93;;;16.17;;
2610;SDS011;5612;51.134;17.058;2024-03-07T13:54:21;19.23;;;15.47;;
2610;SDS011;5612;51.134;17.058;2024-03-07T13:57:08;19.17;;;16.77;;
2610;SDS011;5612;51.134;17.058;2024-03-07T13:59:59;15.97;;;14.33;;
2610;SDS011;5612;51.134;17.058;2024-03-07T14:03:09;17.10;;;15.30;;
2610;SDS011;5612;51.134;17.058;2024-03-07T14:06:05;20.77;;;15.33;;
2610;SDS011;5612;51.134;17.058;2024-03-07T14:18:11;16.50;;;14.00;;
2610;SDS011;5612;51.134;17.058;2024-03-07T14:21:09;15.37;;;13.73;;
2610;SDS011;5612;51.134;17.058;2024-03-07T14:24:14;18.10;;;15.07;;
2610;SDS011;5612;51.134;17.058;2024-03-07T14:27:15;18.97;;;15.20;;
2610;SDS011;5612;51.134;17.058;2024-03-07T14:29:54;20.47;;;15.97;;
2610;SDS011;5612;51.134;17.058;2024-03-07T14:32:47;17.67;;;15.33;;
2610;SDS011;5612;51.134;17.058;2024-03-07T14:35:22;16.50;;;14.80;;
2610;SDS011;5612;51.134;17.058;2024-03-07T14:38:02;17.63;;;15.67;;
2610;SDS011;5612;51.134;17.058;2024-03-07T14:40:34;16.50;;;14.50;;
2610;SDS011;5612;51.134;17.058;2024-03-07T14:43:03;17.27;;;15.57;;
2610;SDS011;5612;51.134;17.058;2024-03-07T14:45:35;17.60;;;14.87;;
2610;SDS011;5612;51.134;17.058;2024-03-07T14:48:07;18.33;;;15.20;;
2610;SDS011;5612;51.134;17.058;2024-03-07T14:50:39;19.50;;;15.77;;
2610;SDS011;5612;51.134;17.058;2024-03-07T14:53:11;17.20;;;15.20;;
2610;SDS011;5612;51.134;17.058;2024-03-07T14:55:43;20.23;;;16.63;;
2610;SDS011;5612;51.134;17.058;2024-03-07T14:58:13;17.63;;;15.83;;
2610;SDS011;5612;51.134;17.058;2024-03-07T15:00:43;16.47;;;13.77;;
2610;SDS011;5612;51.134;17.058;2024-03-07T15:03:23;17.87;;;14.37;;
2610;SDS011;5612;51.134;17.058;2024-03-07T15:05:57;17.93;;;15.07;;
2610;SDS011;5612;51.134;17.058;2024-03-07T15:08:28;20.00;;;14.63;;
2610;SDS011;5612;51.134;17.058;2024-03-07T15:10:58;16.23;;;14.53;;